sensor_id;sensor_type;location;lat;lon;timestamp;pressure;altitude;pressure_sealevel;temperature;humidity
76726;BME280;65651;53.154;17.916;2023-07-20T00:02:13;100368.66;;;14.24;75.18
76726;BME280;65651;53.154;17.916;2023-07-20T00:04:41;100364.08;;;14.27;75.34
76726;BME280;65651;53.154;17.916;2023-07-20T00:07:08;100363.66;;;14.29;75.22
76726;BME280;65651;53.154;17.916;2023-07-20T00:09:35;100365.98;;;14.31;75.27
76726;BME280;65651;53.154;17.916;2023-07-20T00:12:07;100366.12;;;14.33;75.21
76726;BME280;65651;53.154;17.916;2023-07-20T00:14:34;100369.81;;;14.35;75.28
76726;BME280;65651;53.154;17.916;2023-07-20T00:17:02;100369.14;;;14.36;75.32
76726;BME280;65651;53.154;17.916;2023-07-20T00:19:29;100370.91;;;14.38;75.24
76726;BME280;65651;53.154;17.916;2023-07-20T00:21:59;100375.48;;;14.40;75.37
76726;BME280;65651;53.154;17.916;2023-07-20T00:24:26;100372.22;;;14.42;75.29
76726;BME280;65651;53.154;17.916;2023-07-20T00:26:54;100375.45;;;14.46;75.35
76726;BME280;65651;53.154;17.916;2023-07-20T00:29:21;100377.45;;;14.48;75.28
76726;BME280;65651;53.154;17.916;2023-07-20T00:31:48;100378.64;;;14.53;75.32
76726;BME280;65651;53.154;17.916;2023-07-20T00:34:16;100383.84;;;14.57;75.28
76726;BME280;65651;53.154;17.916;2023-07-20T00:36:43;100382.05;;;14.62;75.31
76726;BME280;65651;53.154;17.916;2023-07-20T00:39:10;100383.42;;;14.67;75.38
76726;BME280;65651;53.154;17.916;2023-07-20T00:41:37;100382.36;;;14.73;75.49
76726;BME280;65651;53.154;17.916;2023-07-20T00:44:05;100375.61;;;14.78;75.51
76726;BME280;65651;53.154;17.916;2023-07-20T00:46:33;100371.28;;;14.83;75.57
76726;BME280;65651;53.154;17.916;2023-07-20T00:49:01;100373.00;;;14.85;75.65
76726;BME280;65651;53.154;17.916;2023-07-20T00:51:29;100370.94;;;14.86;75.79
76726;BME280;65651;53.154;17.916;2023-07-20T00:53:57;100376.34;;;14.88;75.74
76726;BME280;65651;53.154;17.916;2023-07-20T00:56:24;100377.95;;;14.89;75.83
76726;BME280;65651;53.154;17.916;2023-07-20T00:58:52;100378.81;;;14.91;75.81
76726;BME280;65651;53.154;17.916;2023-07-20T01:01:20;100375.23;;;14.91;75.89
76726;BME280;65651;53.154;17.916;2023-07-20T01:03:48;100374.52;;;14.91;75.98
76726;BME280;65651;53.154;17.916;2023-07-20T01:09:19;100374.36;;;14.92;75.97
76726;BME280;65651;53.154;17.916;2023-07-20T01:14:47;100377.33;;;14.93;75.91
76726;BME280;65651;53.154;17.916;2023-07-20T01:17:14;100381.10;;;14.95;75.86
76726;BME280;65651;53.154;17.916;2023-07-20T01:19:41;100378.00;;;14.96;75.90
76726;BME280;65651;53.154;17.916;2023-07-20T01:22:34;100379.59;;;14.98;75.82
76726;BME280;65651;53.154;17.916;2023-07-20T01:28:39;100383.27;;;15.02;75.80
76726;BME280;65651;53.154;17.916;2023-07-20T01:33:46;100385.27;;;15.04;75.79
76726;BME280;65651;53.154;17.916;2023-07-20T01:36:14;100379.20;;;15.05;75.84
76726;BME280;65651;53.154;17.916;2023-07-20T01:38:43;100375.52;;;15.05;75.84
76726;BME280;65651;53.154;17.916;2023-07-20T01:41:11;100376.64;;;15.05;75.69
76726;BME280;65651;53.154;17.916;2023-07-20T01:43:39;100375.86;;;15.04;75.67
76726;BME280;65651;53.154;17.916;2023-07-20T01:46:06;100375.52;;;15.02;75.72
76726;BME280;65651;53.154;17.916;2023-07-20T01:48:34;100378.76;;;15.01;75.68
76726;BME280;65651;53.154;17.916;2023-07-20T01:51:02;100381.99;;;14.99;75.67
76726;BME280;65651;53.154;17.916;2023-07-20T01:53:30;100383.19;;;14.98;75.62
76726;BME280;65651;53.154;17.916;2023-07-20T01:56:03;100383.43;;;14.98;75.57
76726;BME280;65651;53.154;17.916;2023-07-20T01:58:31;100386.61;;;14.99;75.58
76726;BME280;65651;53.154;17.916;2023-07-20T02:00:58;100386.40;;;14.97;75.57
76726;BME280;65651;53.154;17.916;2023-07-20T02:03:26;100386.08;;;14.95;75.57
76726;BME280;65651;53.154;17.916;2023-07-20T02:05:53;100386.61;;;14.94;75.48
76726;BME280;65651;53.154;17.916;2023-07-20T02:08:21;100390.25;;;14.92;75.44
76726;BME280;65651;53.154;17.916;2023-07-20T02:10:49;100384.52;;;14.90;75.37
76726;BME280;65651;53.154;17.916;2023-07-20T02:13:17;100384.73;;;14.89;75.43
76726;BME280;65651;53.154;17.916;2023-07-20T02:15:44;100385.02;;;14.86;75.30
76726;BME280;65651;53.154;17.916;2023-07-20T02:18:14;100392.17;;;14.85;75.35
76726;BME280;65651;53.154;17.916;2023-07-20T02:20:41;100395.84;;;14.85;75.30
76726;BME280;65651;53.154;17.916;2023-07-20T02:23:09;100399.17;;;14.86;75.34
76726;BME280;65651;53.154;17.916;2023-07-20T02:25:37;100397.98;;;14.87;75.38
76726;BME280;65651;53.154;17.916;2023-07-20T02:28:07;100392.93;;;14.87;75.33
76726;BME280;65651;53.154;17.916;2023-07-20T02:30:38;100388.95;;;14.87;75.35
76726;BME280;65651;53.154;17.916;2023-07-20T02:33:07;100389.30;;;14.85;75.38
76726;BME280;65651;53.154;17.916;2023-07-20T02:35:37;100389.60;;;14.84;75.40
76726;BME280;65651;53.154;17.916;2023-07-20T02:38:05;100387.57;;;14.82;75.46
76726;BME280;65651;53.154;17.916;2023-07-20T02:40:33;100385.91;;;14.80;75.54
76726;BME280;65651;53.154;17.916;2023-07-20T02:43:01;100381.98;;;14.80;75.48
76726;BME280;65651;53.154;17.916;2023-07-20T02:45:33;100379.64;;;14.81;75.66
76726;BME280;65651;53.154;17.916;2023-07-20T02:48:00;100377.30;;;14.81;75.54
76726;BME280;65651;53.154;17.916;2023-07-20T02:50:28;100380.32;;;14.82;75.67
76726;BME280;65651;53.154;17.916;2023-07-20T02:52:55;100382.07;;;14.82;75.68
76726;BME280;65651;53.154;17.916;2023-07-20T02:55:22;100381.48;;;14.82;75.72
76726;BME280;65651;53.154;17.916;2023-07-20T02:57:50;100379.21;;;14.83;75.68
76726;BME280;65651;53.154;17.916;2023-07-20T03:00:18;100377.73;;;14.85;75.77
76726;BME280;65651;53.154;17.916;2023-07-20T03:02:46;100378.25;;;14.87;75.68
76726;BME280;65651;53.154;17.916;2023-07-20T03:05:19;100380.89;;;14.88;75.67
76726;BME280;65651;53.154;17.916;2023-07-20T03:07:48;100376.70;;;14.89;75.70
76726;BME280;65651;53.154;17.916;2023-07-20T03:10:16;100374.68;;;14.91;75.71
76726;BME280;65651;53.154;17.916;2023-07-20T03:12:43;100377.77;;;14.93;75.68
76726;BME280;65651;53.154;17.916;2023-07-20T03:15:11;100376.88;;;14.94;75.75
76726;BME280;65651;53.154;17.916;2023-07-20T03:17:39;100379.27;;;14.95;75.80
76726;BME280;65651;53.154;17.916;2023-07-20T03:20:07;100384.42;;;14.96;75.70
76726;BME280;65651;53.154;17.916;2023-07-20T03:22:36;100384.78;;;14.99;75.84
76726;BME280;65651;53.154;17.916;2023-07-20T03:25:04;100382.02;;;15.01;75.77
76726;BME280;65651;53.154;17.916;2023-07-20T03:27:32;100384.71;;;15.01;75.71
76726;BME280;65651;53.154;17.916;2023-07-20T03:30:00;100382.64;;;15.01;75.64
76726;BME280;65651;53.154;17.916;2023-07-20T03:32:27;100383.64;;;15.01;75.72
76726;BME280;65651;53.154;17.916;2023-07-20T03:34:55;100378.81;;;15.02;75.68
76726;BME280;65651;53.154;17.916;2023-07-20T03:37:22;100380.50;;;15.03;75.57
76726;BME280;65651;53.154;17.916;2023-07-20T03:39:50;100384.70;;;15.04;75.50
76726;BME280;65651;53.154;17.916;2023-07-20T03:42:17;100384.56;;;15.04;75.49
76726;BME280;65651;53.154;17.916;2023-07-20T03:44:44;100383.92;;;15.05;75.31
76726;BME280;65651;53.154;17.916;2023-07-20T03:47:11;100382.82;;;15.07;75.29
76726;BME280;65651;53.154;17.916;2023-07-20T03:49:39;100379.03;;;15.09;75.32
76726;BME280;65651;53.154;17.916;2023-07-20T03:52:07;100381.82;;;15.13;75.24
76726;BME280;65651;53.154;17.916;2023-07-20T03:54:35;100384.27;;;15.17;75.16
76726;BME280;65651;53.154;17.916;2023-07-20T03:57:02;100387.33;;;15.20;75.11
76726;BME280;65651;53.154;17.916;2023-07-20T03:59:30;100389.58;;;15.22;75.06
76726;BME280;65651;53.154;17.916;2023-07-20T04:01:57;100387.87;;;15.25;75.00
76726;BME280;65651;53.154;17.916;2023-07-20T04:04:24;100384.11;;;15.27;74.82
76726;BME280;65651;53.154;17.916;2023-07-20T04:06:52;100385.44;;;15.31;74.75
76726;BME280;65651;53.154;17.916;2023-07-20T04:09:20;100388.27;;;15.38;74.63
76726;BME280;65651;53.154;17.916;2023-07-20T04:11:54;100390.09;;;15.47;74.59
76726;BME280;65651;53.154;17.916;2023-07-20T04:14:22;100388.72;;;15.61;74.42
76726;BME280;65651;53.154;17.916;2023-07-20T04:16:51;100392.37;;;15.78;74.24
76726;BME280;65651;53.154;17.916;2023-07-20T04:19:45;100392.84;;;15.89;74.07
76726;BME280;65651;53.154;17.916;2023-07-20T04:22:20;100394.27;;;16.00;73.98
76726;BME280;65651;53.154;17.916;2023-07-20T04:24:54;100391.59;;;16.07;73.79
76726;BME280;65651;53.154;17.916;2023-07-20T04:27:21;100392.39;;;16.13;73.55
76726;BME280;65651;53.154;17.916;2023-07-20T04:29:48;100387.67;;;16.13;73.42
76726;BME280;65651;53.154;17.916;2023-07-20T04:32:16;100388.35;;;16.11;73.32
76726;BME280;65651;53.154;17.916;2023-07-20T04:34:43;100383.07;;;16.10;73.35
76726;BME280;65651;53.154;17.916;2023-07-20T04:37:11;100389.66;;;16.12;73.25
76726;BME280;65651;53.154;17.916;2023-07-20T04:39:38;100391.88;;;16.15;73.17
76726;BME280;65651;53.154;17.916;2023-07-20T04:42:10;100393.06;;;16.16;73.20
76726;BME280;65651;53.154;17.916;2023-07-20T04:44:39;100390.45;;;16.15;73.00
76726;BME280;65651;53.154;17.916;2023-07-20T04:47:14;100389.27;;;16.18;73.06
76726;BME280;65651;53.154;17.916;2023-07-20T04:49:43;100385.85;;;16.24;72.99
76726;BME280;65651;53.154;17.916;2023-07-20T04:52:13;100392.14;;;16.34;72.93
76726;BME280;65651;53.154;17.916;2023-07-20T04:54:40;100392.30;;;16.48;72.82
76726;BME280;65651;53.154;17.916;2023-07-20T04:57:11;100390.46;;;16.54;72.69
76726;BME280;65651;53.154;17.916;2023-07-20T04:59:41;100389.23;;;16.62;72.52
76726;BME280;65651;53.154;17.916;2023-07-20T05:02:08;100393.74;;;16.67;72.43
76726;BME280;65651;53.154;17.916;2023-07-20T05:04:35;100395.71;;;16.82;72.06
76726;BME280;65651;53.154;17.916;2023-07-20T05:07:03;100392.55;;;17.51;71.64
76726;BME280;65651;53.154;17.916;2023-07-20T05:09:31;100392.55;;;18.40;70.82
76726;BME280;65651;53.154;17.916;2023-07-20T05:11:58;100391.91;;;19.27;70.08
76726;BME280;65651;53.154;17.916;2023-07-20T05:14:26;100385.91;;;19.77;69.31
76726;BME280;65651;53.154;17.916;2023-07-20T05:16:54;100387.14;;;20.02;68.59
76726;BME280;65651;53.154;17.916;2023-07-20T05:19:21;100384.60;;;20.07;67.92
76726;BME280;65651;53.154;17.916;2023-07-20T05:21:51;100389.41;;;20.22;67.46
76726;BME280;65651;53.154;17.916;2023-07-20T05:24:18;100388.48;;;20.22;66.95
76726;BME280;65651;53.154;17.916;2023-07-20T05:26:46;100394.61;;;20.12;66.70
76726;BME280;65651;53.154;17.916;2023-07-20T05:29:13;100396.44;;;20.01;66.10
76726;BME280;65651;53.154;17.916;2023-07-20T05:31:40;100392.50;;;19.82;65.68
76726;BME280;65651;53.154;17.916;2023-07-20T05:34:07;100395.62;;;19.76;65.61
76726;BME280;65651;53.154;17.916;2023-07-20T05:36:36;100394.56;;;19.76;64.93
76726;BME280;65651;53.154;17.916;2023-07-20T05:39:04;100401.16;;;19.82;64.51
76726;BME280;65651;53.154;17.916;2023-07-20T05:41:31;100404.48;;;19.87;64.05
76726;BME280;65651;53.154;17.916;2023-07-20T05:43:58;100398.71;;;19.97;63.82
76726;BME280;65651;53.154;17.916;2023-07-20T05:46:26;100404.23;;;20.70;62.98
76726;BME280;65651;53.154;17.916;2023-07-20T05:48:53;100404.59;;;22.08;61.73
76726;BME280;65651;53.154;17.916;2023-07-20T05:51:20;100400.48;;;22.56;61.18
76726;BME280;65651;53.154;17.916;2023-07-20T05:53:47;100398.38;;;22.76;60.13
76726;BME280;65651;53.154;17.916;2023-07-20T05:56:15;100400.77;;;22.82;59.22
76726;BME280;65651;53.154;17.916;2023-07-20T05:58:42;100397.42;;;22.74;58.53
76726;BME280;65651;53.154;17.916;2023-07-20T06:01:09;100395.27;;;22.68;58.20
76726;BME280;65651;53.154;17.916;2023-07-20T06:03:37;100395.48;;;22.80;57.77
76726;BME280;65651;53.154;17.916;2023-07-20T06:06:04;100388.66;;;22.52;57.43
76726;BME280;65651;53.154;17.916;2023-07-20T06:08:32;100386.48;;;22.41;57.28
76726;BME280;65651;53.154;17.916;2023-07-20T06:11:00;100383.14;;;22.45;56.56
76726;BME280;65651;53.154;17.916;2023-07-20T06:13:27;100391.14;;;22.62;55.61
76726;BME280;65651;53.154;17.916;2023-07-20T06:15:54;100390.56;;;22.46;55.41
76726;BME280;65651;53.154;17.916;2023-07-20T06:18:23;100390.94;;;22.46;55.36
76726;BME280;65651;53.154;17.916;2023-07-20T06:20:51;100390.65;;;22.56;55.11
76726;BME280;65651;53.154;17.916;2023-07-20T06:23:21;100388.86;;;22.67;54.60
76726;BME280;65651;53.154;17.916;2023-07-20T06:25:48;100389.92;;;22.73;54.20
76726;BME280;65651;53.154;17.916;2023-07-20T06:28:16;100392.02;;;23.13;53.55
76726;BME280;65651;53.154;17.916;2023-07-20T06:30:43;100387.92;;;23.65;52.67
76726;BME280;65651;53.154;17.916;2023-07-20T06:33:10;100391.07;;;23.97;51.90
76726;BME280;65651;53.154;17.916;2023-07-20T06:35:41;100386.16;;;25.51;50.28
76726;BME280;65651;53.154;17.916;2023-07-20T06:38:10;100390.42;;;26.35;48.31
76726;BME280;65651;53.154;17.916;2023-07-20T06:40:37;100384.87;;;28.32;45.51
76726;BME280;65651;53.154;17.916;2023-07-20T06:43:07;100383.95;;;30.28;43.08
76726;BME280;65651;53.154;17.916;2023-07-20T06:45:34;100386.84;;;30.70;41.23
76726;BME280;65651;53.154;17.916;2023-07-20T06:48:02;100379.48;;;29.86;40.48
76726;BME280;65651;53.154;17.916;2023-07-20T06:50:30;100383.10;;;31.53;38.48
76726;BME280;65651;53.154;17.916;2023-07-20T06:52:57;100377.36;;;33.06;35.98
76726;BME280;65651;53.154;17.916;2023-07-20T06:55:26;100381.15;;;32.11;34.68
76726;BME280;65651;53.154;17.916;2023-07-20T06:57:53;100379.64;;;33.40;32.83
76726;BME280;65651;53.154;17.916;2023-07-20T07:00:21;100380.23;;;34.13;31.17
76726;BME280;65651;53.154;17.916;2023-07-20T07:02:48;100382.66;;;32.40;30.41
76726;BME280;65651;53.154;17.916;2023-07-20T07:05:15;100385.61;;;30.24;31.63
76726;BME280;65651;53.154;17.916;2023-07-20T07:07:43;100380.89;;;29.73;31.76
76726;BME280;65651;53.154;17.916;2023-07-20T07:10:10;100381.23;;;32.09;30.70
76726;BME280;65651;53.154;17.916;2023-07-20T07:12:37;100378.05;;;34.44;28.75
76726;BME280;65651;53.154;17.916;2023-07-20T07:15:05;100375.20;;;34.21;28.31
76726;BME280;65651;53.154;17.916;2023-07-20T07:17:37;100380.73;;;33.78;27.76
76726;BME280;65651;53.154;17.916;2023-07-20T07:20:06;100386.63;;;33.24;27.49
76726;BME280;65651;53.154;17.916;2023-07-20T07:22:34;100386.98;;;31.15;28.53
76726;BME280;65651;53.154;17.916;2023-07-20T07:25:01;100386.89;;;29.35;29.96
76726;BME280;65651;53.154;17.916;2023-07-20T07:27:30;100383.31;;;28.62;30.76
76726;BME280;65651;53.154;17.916;2023-07-20T07:29:57;100387.34;;;28.35;31.18
76726;BME280;65651;53.154;17.916;2023-07-20T07:32:25;100384.80;;;28.29;31.36
76726;BME280;65651;53.154;17.916;2023-07-20T07:34:52;100390.55;;;27.81;32.14
76726;BME280;65651;53.154;17.916;2023-07-20T07:37:22;100392.30;;;30.00;31.11
76726;BME280;65651;53.154;17.916;2023-07-20T07:39:50;100395.17;;;30.80;30.63
76726;BME280;65651;53.154;17.916;2023-07-20T07:42:17;100391.88;;;30.43;30.53
76726;BME280;65651;53.154;17.916;2023-07-20T07:44:45;100392.66;;;31.14;30.17
76726;BME280;65651;53.154;17.916;2023-07-20T07:47:12;100393.29;;;30.28;30.62
76726;BME280;65651;53.154;17.916;2023-07-20T07:49:40;100393.75;;;29.56;30.95
76726;BME280;65651;53.154;17.916;2023-07-20T07:52:07;100397.27;;;28.46;31.37
76726;BME280;65651;53.154;17.916;2023-07-20T07:54:35;100400.63;;;28.02;31.94
76726;BME280;65651;53.154;17.916;2023-07-20T07:57:02;100391.44;;;29.13;31.45
76726;BME280;65651;53.154;17.916;2023-07-20T07:59:30;100389.86;;;31.43;29.55
76726;BME280;65651;53.154;17.916;2023-07-20T08:01:58;100391.48;;;30.62;29.54
76726;BME280;65651;53.154;17.916;2023-07-20T08:04:26;100387.10;;;29.77;29.96
76726;BME280;65651;53.154;17.916;2023-07-20T08:06:54;100388.89;;;31.40;29.05
76726;BME280;65651;53.154;17.916;2023-07-20T08:09:21;100389.65;;;31.31;28.76
76726;BME280;65651;53.154;17.916;2023-07-20T08:11:48;100386.36;;;32.07;28.22
76726;BME280;65651;53.154;17.916;2023-07-20T08:14:21;100384.15;;;32.64;27.02
76726;BME280;65651;53.154;17.916;2023-07-20T08:16:48;100385.94;;;31.38;27.69
76726;BME280;65651;53.154;17.916;2023-07-20T08:19:16;100383.41;;;32.55;26.86
76726;BME280;65651;53.154;17.916;2023-07-20T08:21:43;100380.95;;;33.62;25.57
76726;BME280;65651;53.154;17.916;2023-07-20T08:24:11;100383.21;;;34.61;24.64
76726;BME280;65651;53.154;17.916;2023-07-20T08:26:38;100382.21;;;32.87;25.09
76726;BME280;65651;53.154;17.916;2023-07-20T08:29:05;100379.88;;;33.14;24.96
76726;BME280;65651;53.154;17.916;2023-07-20T08:31:32;100384.09;;;32.83;25.22
76726;BME280;65651;53.154;17.916;2023-07-20T08:34:00;100382.10;;;34.55;24.24
76726;BME280;65651;53.154;17.916;2023-07-20T08:36:27;100380.82;;;34.72;24.13
76726;BME280;65651;53.154;17.916;2023-07-20T08:38:55;100380.13;;;33.72;23.69
76726;BME280;65651;53.154;17.916;2023-07-20T08:41:22;100385.83;;;31.70;24.75
76726;BME280;65651;53.154;17.916;2023-07-20T08:43:50;100391.77;;;29.63;25.90
76726;BME280;65651;53.154;17.916;2023-07-20T08:46:23;100395.59;;;28.28;27.30
76726;BME280;65651;53.154;17.916;2023-07-20T08:48:52;100393.17;;;28.01;28.37
76726;BME280;65651;53.154;17.916;2023-07-20T08:51:21;100393.77;;;30.42;27.83
76726;BME280;65651;53.154;17.916;2023-07-20T08:53:50;100385.46;;;32.36;26.96
76726;BME280;65651;53.154;17.916;2023-07-20T08:56:19;100385.57;;;32.89;25.93
76726;BME280;65651;53.154;17.916;2023-07-20T08:58:55;100386.13;;;31.79;26.19
76726;BME280;65651;53.154;17.916;2023-07-20T09:01:23;100383.02;;;29.87;27.12
76726;BME280;65651;53.154;17.916;2023-07-20T09:03:53;100386.27;;;28.46;28.40
76726;BME280;65651;53.154;17.916;2023-07-20T09:06:21;100384.27;;;29.59;28.29
76726;BME280;65651;53.154;17.916;2023-07-20T09:08:48;100380.73;;;31.45;26.96
76726;BME280;65651;53.154;17.916;2023-07-20T09:11:15;100368.95;;;33.50;25.65
76726;BME280;65651;53.154;17.916;2023-07-20T09:13:44;100366.86;;;34.86;24.12
76726;BME280;65651;53.154;17.916;2023-07-20T09:16:14;100361.96;;;33.98;24.14
76726;BME280;65651;53.154;17.916;2023-07-20T09:18:42;100365.30;;;32.17;24.38
76726;BME280;65651;53.154;17.916;2023-07-20T09:21:09;100366.55;;;30.98;25.38
76726;BME280;65651;53.154;17.916;2023-07-20T09:23:37;100365.59;;;30.83;25.51
76726;BME280;65651;53.154;17.916;2023-07-20T09:26:10;100361.21;;;31.70;25.20
76726;BME280;65651;53.154;17.916;2023-07-20T09:28:53;100363.63;;;30.69;25.94
76726;BME280;65651;53.154;17.916;2023-07-20T09:31:22;100361.94;;;29.46;26.60
76726;BME280;65651;53.154;17.916;2023-07-20T09:33:52;100359.38;;;28.99;27.04
76726;BME280;65651;53.154;17.916;2023-07-20T09:36:20;100361.15;;;28.49;27.58
76726;BME280;65651;53.154;17.916;2023-07-20T09:38:48;100356.28;;;29.50;27.48
76726;BME280;65651;53.154;17.916;2023-07-20T09:41:15;100351.11;;;31.46;26.64
76726;BME280;65651;53.154;17.916;2023-07-20T09:43:42;100350.05;;;32.91;25.18
76726;BME280;65651;53.154;17.916;2023-07-20T09:46:10;100350.77;;;33.78;23.78
76726;BME280;65651;53.154;17.916;2023-07-20T09:48:38;100351.79;;;34.10;22.89
76726;BME280;65651;53.154;17.916;2023-07-20T09:51:07;100348.27;;;34.01;22.65
76726;BME280;65651;53.154;17.916;2023-07-20T09:53:37;100346.19;;;34.51;21.98
76726;BME280;65651;53.154;17.916;2023-07-20T09:56:05;100343.98;;;32.41;22.98
76726;BME280;65651;53.154;17.916;2023-07-20T09:58:33;100339.65;;;33.06;22.95
76726;BME280;65651;53.154;17.916;2023-07-20T10:01:03;100341.13;;;34.13;22.03
76726;BME280;65651;53.154;17.916;2023-07-20T10:03:34;100340.62;;;33.44;22.62
76726;BME280;65651;53.154;17.916;2023-07-20T10:06:06;100344.06;;;31.44;23.33
76726;BME280;65651;53.154;17.916;2023-07-20T10:08:39;100346.88;;;29.66;24.96
76726;BME280;65651;53.154;17.916;2023-07-20T10:11:08;100351.61;;;28.29;26.35
76726;BME280;65651;53.154;17.916;2023-07-20T10:13:39;100344.52;;;28.15;27.39
76726;BME280;65651;53.154;17.916;2023-07-20T10:16:12;100339.38;;;27.90;28.18
76726;BME280;65651;53.154;17.916;2023-07-20T10:21:22;100336.55;;;27.20;28.96
76726;BME280;65651;53.154;17.916;2023-07-20T10:23:50;100339.55;;;26.75;29.39
76726;BME280;65651;53.154;17.916;2023-07-20T10:26:26;100344.19;;;26.11;30.18
76726;BME280;65651;53.154;17.916;2023-07-20T10:28:56;100345.61;;;25.53;31.19
76726;BME280;65651;53.154;17.916;2023-07-20T10:31:25;100347.61;;;24.95;32.08
76726;BME280;65651;53.154;17.916;2023-07-20T10:33:59;100345.78;;;24.48;32.93
76726;BME280;65651;53.154;17.916;2023-07-20T10:36:27;100347.02;;;24.01;33.69
76726;BME280;65651;53.154;17.916;2023-07-20T10:38:56;100345.72;;;23.75;34.45
76726;BME280;65651;53.154;17.916;2023-07-20T10:41:34;100343.24;;;23.71;34.89
76726;BME280;65651;53.154;17.916;2023-07-20T10:44:07;100336.84;;;24.14;35.05
76726;BME280;65651;53.154;17.916;2023-07-20T10:49:08;100332.19;;;24.47;35.07
76726;BME280;65651;53.154;17.916;2023-07-20T10:51:41;100330.25;;;24.69;35.30
76726;BME280;65651;53.154;17.916;2023-07-20T10:56:58;100327.83;;;24.85;35.17
76726;BME280;65651;53.154;17.916;2023-07-20T10:59:46;100331.45;;;24.82;35.56
76726;BME280;65651;53.154;17.916;2023-07-20T11:02:18;100329.07;;;24.85;35.55
76726;BME280;65651;53.154;17.916;2023-07-20T11:04:47;100328.52;;;25.02;35.45
76726;BME280;65651;53.154;17.916;2023-07-20T11:07:36;100326.37;;;25.33;35.24
76726;BME280;65651;53.154;17.916;2023-07-20T11:10:16;100325.96;;;25.69;34.83
76726;BME280;65651;53.154;17.916;2023-07-20T11:13:21;100315.36;;;25.72;34.77
76726;BME280;65651;53.154;17.916;2023-07-20T11:18:26;100321.85;;;25.84;34.83
76726;BME280;65651;53.154;17.916;2023-07-20T11:20:54;100325.92;;;25.91;34.50
76726;BME280;65651;53.154;17.916;2023-07-20T11:23:21;100325.48;;;25.83;33.95
76726;BME280;65651;53.154;17.916;2023-07-20T11:25:49;100322.77;;;25.94;33.86
76726;BME280;65651;53.154;17.916;2023-07-20T11:28:16;100326.52;;;25.76;33.88
76726;BME280;65651;53.154;17.916;2023-07-20T11:30:44;100323.72;;;25.50;34.17
76726;BME280;65651;53.154;17.916;2023-07-20T11:33:12;100324.70;;;25.16;34.54
76726;BME280;65651;53.154;17.916;2023-07-20T11:35:42;100336.06;;;24.76;35.20
76726;BME280;65651;53.154;17.916;2023-07-20T11:38:13;100367.51;;;24.27;38.97
76726;BME280;65651;53.154;17.916;2023-07-20T11:40:45;100389.27;;;23.09;42.39
76726;BME280;65651;53.154;17.916;2023-07-20T11:43:13;100404.42;;;21.84;44.53
76726;BME280;65651;53.154;17.916;2023-07-20T11:45:41;100408.31;;;20.95;46.40
76726;BME280;65651;53.154;17.916;2023-07-20T11:48:14;100417.11;;;19.99;50.70
76726;BME280;65651;53.154;17.916;2023-07-20T11:50:42;100435.83;;;18.95;52.19
76726;BME280;65651;53.154;17.916;2023-07-20T11:53:10;100440.55;;;18.22;53.70
76726;BME280;65651;53.154;17.916;2023-07-20T11:55:41;100432.27;;;17.68;55.88
76726;BME280;65651;53.154;17.916;2023-07-20T11:58:10;100432.30;;;17.28;56.84
76726;BME280;65651;53.154;17.916;2023-07-20T12:00:44;100427.61;;;17.05;57.72
76726;BME280;65651;53.154;17.916;2023-07-20T12:03:13;100427.81;;;16.96;58.52
76726;BME280;65651;53.154;17.916;2023-07-20T12:05:41;100424.24;;;16.95;59.78
76726;BME280;65651;53.154;17.916;2023-07-20T12:08:08;100426.74;;;17.03;60.50
76726;BME280;65651;53.154;17.916;2023-07-20T12:10:39;100426.13;;;17.07;61.04
76726;BME280;65651;53.154;17.916;2023-07-20T12:13:11;100425.46;;;17.15;61.26
76726;BME280;65651;53.154;17.916;2023-07-20T12:15:39;100423.20;;;17.33;61.70
76726;BME280;65651;53.154;17.916;2023-07-20T12:18:09;100418.59;;;17.63;62.39
76726;BME280;65651;53.154;17.916;2023-07-20T12:20:37;100419.84;;;17.97;62.28
76726;BME280;65651;53.154;17.916;2023-07-20T12:23:11;100421.21;;;18.21;62.71
76726;BME280;65651;53.154;17.916;2023-07-20T12:25:44;100424.21;;;18.40;62.69
76726;BME280;65651;53.154;17.916;2023-07-20T12:28:13;100425.67;;;18.62;62.91
76726;BME280;65651;53.154;17.916;2023-07-20T12:30:45;100426.29;;;18.84;63.13
76726;BME280;65651;53.154;17.916;2023-07-20T12:33:16;100426.06;;;19.03;63.06
76726;BME280;65651;53.154;17.916;2023-07-20T12:35:46;100426.52;;;19.21;63.13
76726;BME280;65651;53.154;17.916;2023-07-20T12:38:13;100425.04;;;19.39;63.23
76726;BME280;65651;53.154;17.916;2023-07-20T12:40:41;100428.64;;;19.59;63.35
76726;BME280;65651;53.154;17.916;2023-07-20T12:43:12;100426.77;;;19.79;63.38
76726;BME280;65651;53.154;17.916;2023-07-20T12:45:39;100426.30;;;19.95;63.34
76726;BME280;65651;53.154;17.916;2023-07-20T12:48:07;100427.23;;;20.17;63.20
76726;BME280;65651;53.154;17.916;2023-07-20T12:50:38;100422.09;;;20.39;63.16
76726;BME280;65651;53.154;17.916;2023-07-20T12:53:06;100416.20;;;20.58;62.89
76726;BME280;65651;53.154;17.916;2023-07-20T12:55:33;100411.47;;;20.83;62.84
76726;BME280;65651;53.154;17.916;2023-07-20T12:58:03;100409.06;;;20.98;62.65
76726;BME280;65651;53.154;17.916;2023-07-20T13:00:31;100405.17;;;20.99;62.50
76726;BME280;65651;53.154;17.916;2023-07-20T13:03:02;100401.69;;;21.01;62.54
76726;BME280;65651;53.154;17.916;2023-07-20T13:05:41;100405.48;;;21.00;62.43
76726;BME280;65651;53.154;17.916;2023-07-20T13:08:10;100398.83;;;20.99;62.42
76726;BME280;65651;53.154;17.916;2023-07-20T13:10:41;100399.21;;;20.98;62.64
76726;BME280;65651;53.154;17.916;2023-07-20T13:13:09;100395.87;;;21.02;63.09